ENNA METAR and TAF weather

Enter ICAO airport designator
Station Type Date Time Source
ENNA METAR 2019/06/19 06:20 UTC NOAA

ENNA 190620Z 36005KT 330V030 9999 FEW014 SCT025 BKN040 07/03 Q1008 RMK WIND 1800FT 32005KT


Station Type Date Time Source
ENNA Decoded METAR 2019/06/19 06:20 UTC NOAA

Banak, Norway (ENNA) 70-04N 024-59E 8M
Jun 19, 2019 - 02:20 AM EDT / 2019.06.19 0620 UTC
Wind: from the N (360 degrees) at 6 MPH (5 KT) (direction variable):0
Visibility: greater than 7 mile(s):0
Sky conditions: mostly cloudy
Temperature: 44 F (7 C)
Dew Point: 37 F (3 C)
Relative Humidity: 75%
Pressure (altimeter): 29.77 in. Hg (1008 hPa)
ob: ENNA 190620Z 36005KT 330V030 9999 FEW014 SCT025 BKN040 07/03 Q1008 RMK WIND 1800FT 32005KT
cycle: 6

Station Type Date Time Source
ENNA TAF 2019/06/19 06:58 UTC NOAA

TAF ENNA 190500Z 1906/2006 01008KT 9999 -RA FEW010 BKN035
TEMPO 1906/1918 BKN014

Example: see airport list